createdAt,value
2024-03-01T00:29:45.160Z,6.15
2024-03-01T00:44:35.630Z,6.15
2024-03-01T00:59:26.524Z,6.17
2024-03-01T01:14:17.831Z,6.22
2024-03-01T01:29:09.512Z,6.40
2024-03-01T01:44:01.056Z,6.36
2024-03-01T01:58:53.178Z,6.48
2024-03-01T02:13:44.102Z,6.60
2024-03-01T02:28:35.810Z,6.76
2024-03-01T02:43:27.719Z,6.65
2024-03-01T02:58:19.106Z,6.49
2024-03-01T03:28:12.698Z,6.56
2024-03-01T03:43:03.975Z,6.69
2024-03-01T03:57:55.299Z,6.67
2024-03-01T04:27:39.704Z,6.75
2024-03-01T04:42:31.547Z,6.83
2024-03-01T04:57:23.265Z,6.83
2024-03-01T05:12:17.079Z,6.90
2024-03-01T05:27:20.614Z,7.03
2024-03-01T05:42:11.509Z,7.13
2024-03-01T05:57:02.180Z,7.16
2024-03-01T06:11:52.969Z,7.25
2024-03-01T06:26:44.046Z,7.34
2024-03-01T06:41:35.378Z,7.37
2024-03-01T06:56:27.498Z,7.50
2024-03-01T07:11:18.908Z,7.53
2024-03-01T07:26:09.699Z,7.64
2024-03-01T07:41:02.255Z,7.67
2024-03-01T07:55:53.580Z,7.77
2024-03-01T09:10:37.038Z,9.27
2024-03-01T09:25:41.566Z,9.88
2024-03-01T09:40:52.726Z,10.30
2024-03-01T09:56:05.901Z,10.59
2024-03-01T10:11:25.127Z,10.66
2024-03-01T10:26:28.661Z,10.69
2024-03-01T10:41:29.764Z,10.60
2024-03-01T10:56:23.800Z,10.45
2024-03-01T11:11:36.039Z,10.30
2024-03-01T11:26:36.277Z,10.27
2024-03-01T11:41:49.309Z,10.27
2024-03-01T11:56:57.229Z,10.17
2024-03-01T12:12:08.999Z,10.21
2024-03-01T12:27:12.158Z,10.33
2024-03-01T12:42:21.112Z,10.66
2024-03-01T12:57:20.178Z,10.94
2024-03-01T13:12:12.338Z,11.03
2024-03-01T13:27:31.496Z,11.15
2024-03-01T13:42:49.605Z,11.23
2024-03-01T13:57:48.322Z,11.28
2024-03-01T14:12:40.989Z,11.61
2024-03-01T14:27:32.715Z,11.59
2024-03-01T14:42:24.035Z,11.63
2024-03-01T15:12:24.743Z,11.64
2024-03-01T15:27:24.118Z,11.63
2024-03-01T15:42:19.258Z,11.59
2024-03-01T15:57:11.377Z,11.61
2024-03-01T16:12:05.731Z,11.50
2024-03-01T16:26:58.936Z,11.48
2024-03-01T16:41:49.852Z,11.37
2024-03-01T16:56:40.398Z,11.12
2024-03-01T17:11:32.437Z,10.92
2024-03-01T17:26:25.133Z,10.70
2024-03-01T17:41:15.637Z,10.50
2024-03-01T17:56:07.758Z,10.28
2024-03-01T18:10:59.161Z,10.09
2024-03-01T18:25:51.212Z,9.90
2024-03-01T20:10:07.461Z,9.08
2024-03-01T20:55:03.584Z,8.70
2024-03-01T21:54:53.949Z,8.44
2024-03-01T22:09:45.873Z,8.37
2024-03-01T22:24:36.392Z,8.34
2024-03-01T22:39:26.822Z,8.15
2024-03-01T22:54:23.678Z,7.86
2024-03-01T23:09:18.071Z,7.61
2024-03-01T23:24:08.946Z,7.46
2024-03-01T23:38:59.050Z,7.18
2024-03-01T23:53:50.028Z,7.18
